ADDS METAR Data INFO
IDs: Format: Raw Decoded Include TAF

Data at: 0606 UTC 25 Jun 2018

PAKI 250556Z AUTO 30006KT 10SM SCT065 11/06 A2993 RMK AO2 SLP137 T01060056 10128 20106 56008
PAKI 250456Z AUTO 28007KT 10SM OVC036 11/06 A2994 RMK AO2 SLP140 T01060056
PAKI 250256Z AUTO 22008KT 10SM FEW042 BKN050 OVC060 12/05 A2995 RMK AO2 SLP145 T01170050 58012
PAKI 250156Z AUTO 23009KT 10SM FEW032 OVC060 12/05 A2997 RMK AO2 SLP149 T01220050
PAKI 250056Z AUTO 20007KT 10SM OVC050 12/06 A2998 RMK AO2 SLP154 T01170056
PAKI 242356Z AUTO 22008KT 10SM OVC043 12/06 A2999 RMK AO2 SLP157 60000 T01170056 10122 20094 58011
PAKI 242256Z AUTO 21006KT 10SM FEW024 OVC041 12/07 A3000 RMK AO2 SLP161 T01170067
PAKI 242156Z AUTO 20004KT 10SM OVC045 12/06 A3001 RMK AO2 SLP164 T01170061
PAKI 242056Z AUTO 10005KT 10SM BKN049 OVC065 11/07 A3002 RMK AO2 SLP168 60000 T01110067 58008
PAKI 241956Z AUTO 00000KT 10SM FEW028 SCT036 BKN050 10/06 A3003 RMK AO2 RAE33 SLP172 P0000 T01000061
PAKI 241948Z AUTO 32003KT 10SM SCT028 BKN036 10/07 A3004 RMK AO2 RAE33 P0000
PAKI 241856Z AUTO 25005KT 10SM -RA BKN024 OVC055 09/06 A3005 RMK AO2 RAB28 SLP176 P0000 T00940056
PAKI 241756Z AUTO 22003KT 10SM FEW044 OVC060 10/04 A3005 RMK AO2 SLP176 60000 T01000044 10100 20078 56003
PAKI 241656Z AUTO 18003KT 10SM OVC048 09/06 A3005 RMK AO2 SLP177 T00940056
PAKI 241556Z AUTO 00000KT 10SM BKN042 09/06 A3005 RMK AO2 RAB12E29 SLP176 P0000 T00940056
PAKI 241456Z AUTO 00000KT 10SM SCT041 OVC060 08/06 A3006 RMK AO2 RAB37E53 SLP180 P0000 60000 T00830061 58010
PAKI 241356Z AUTO 00000KT 10SM FEW048 OVC070 09/05 A3007 RMK AO2 SLP185 T00890050
PAKI 241256Z AUTO 17003KT 10SM FEW050 OVC070 09/05 A3008 RMK AO2 SLP188 T00890050
PAKI 241156Z AUTO 00000KT 10SM OVC075 09/05 A3009 RMK AO2 SLP190 T00890050 10106 20089 57004
PAKI 241056Z AUTO 22006KT 10SM OVC075 09/06 A3010 RMK AO2 SLP193 T00890056
PAKI 240956Z AUTO 23005KT 10SM OVC070 09/06 A3009 RMK AO2 SLP192 T00890061
PAKI 240856Z AUTO 21007KT 10SM FEW017 OVC070 09/06 A3010 RMK AO2 SLP195 T00940061 401280089 53002
PAKI 240756Z AUTO 21006KT 10SM OVC070 10/06 A3010 RMK AO2 SLP194 T01000061
PAKI 240656Z AUTO 20005KT 10SM OVC070 10/06 A3009 RMK AO2 SLP192 T01000056
PAKI 240556Z AUTO 18006KT 10SM OVC070 11/05 A3009 RMK AO2 SLP192 T01060050 10128 20106 58007
PAKI 240456Z AUTO 19006KT 10SM OVC070 11/06 A3011 RMK AO2 SLP197 T01060056
PAKI 240356Z AUTO 20009KT 10SM SCT020 SCT026 OVC070 11/06 A3011 RMK AO2 SLP199 T01060061
PAKI 240345Z AUTO 20008KT 10SM FEW020 BKN026 OVC070 11/07 A3012 RMK AO2
PAKI 240256Z AUTO 21010KT 10SM SCT026 OVC070 11/06 A3012 RMK AO2 SLP200 T01110061 56001
PAKI 240156Z AUTO 17009KT 10SM FEW034 OVC070 12/04 A3012 RMK AO2 SLP200 T01170039
PAKI 240056Z AUTO 17009KT 10SM SCT047 BKN065 12/04 A3012 RMK AO2 SLP200 T01170044
PAKI 232356Z AUTO 21005KT 10SM OVC038 11/04 A3012 RMK AO2 SLP201 T01060039 10111 20094 50000
PAKI 232256Z AUTO 17004KT 10SM BKN036 BKN043 OVC050 11/04 A3013 RMK AO2 SLP204 T01110039
PAKI 232156Z AUTO 20008KT 10SM BKN034 BKN045 OVC055 11/03 A3012 RMK AO2 SLP201 T01110033
PAKI 232056Z AUTO 20005KT 10SM OVC043 10/04 A3012 RMK AO2 SLP201 T01000044 50003
PAKI 231956Z AUTO 21007KT 10SM FEW027 OVC037 10/04 A3012 RMK AO2 SLP201 T01000039
PAKI 231856Z AUTO 17007KT 10SM OVC041 10/03 A3012 RMK AO2 SLP200 T01000028